sensor_id;sensor_type;location;lat;lon;timestamp;pressure;altitude;pressure_sealevel;temperature;humidity
55044;BME280;54902;50.420;18.854;2023-06-04T00:00:19;101810.23;;;11.79;46.12
55044;BME280;54902;50.420;18.854;2023-06-04T00:00:50;101814.81;;;11.78;46.04
55044;BME280;54902;50.420;18.854;2023-06-04T00:01:22;101803.00;;;11.78;46.19
55044;BME280;54902;50.420;18.854;2023-06-04T00:01:53;101805.86;;;11.76;46.41
55044;BME280;54902;50.420;18.854;2023-06-04T00:02:24;101799.52;;;11.76;46.35
55044;BME280;54902;50.420;18.854;2023-06-04T00:02:54;101804.10;;;11.75;46.24
55044;BME280;54902;50.420;18.854;2023-06-04T00:03:26;101802.33;;;11.74;46.21
55044;BME280;54902;50.420;18.854;2023-06-04T00:03:57;101798.73;;;11.74;46.39
55044;BME280;54902;50.420;18.854;2023-06-04T00:04:28;101799.71;;;11.73;46.32
55044;BME280;54902;50.420;18.854;2023-06-04T00:05:00;101800.73;;;11.72;46.47
55044;BME280;54902;50.420;18.854;2023-06-04T00:05:32;101796.23;;;11.71;46.40
55044;BME280;54902;50.420;18.854;2023-06-04T00:06:03;101792.71;;;11.69;46.47
55044;BME280;54902;50.420;18.854;2023-06-04T00:06:34;101797.33;;;11.68;46.52
55044;BME280;54902;50.420;18.854;2023-06-04T00:07:06;101792.82;;;11.67;46.42
55044;BME280;54902;50.420;18.854;2023-06-04T00:07:37;101790.21;;;11.66;46.38
55044;BME280;54902;50.420;18.854;2023-06-04T00:08:08;101791.17;;;11.65;46.38
55044;BME280;54902;50.420;18.854;2023-06-04T00:08:39;101797.55;;;11.65;46.35
55044;BME280;54902;50.420;18.854;2023-06-04T00:09:12;101788.56;;;11.63;46.32
55044;BME280;54902;50.420;18.854;2023-06-04T00:09:43;101791.41;;;11.62;46.36
55044;BME280;54902;50.420;18.854;2023-06-04T00:10:17;101787.80;;;11.62;46.38
55044;BME280;54902;50.420;18.854;2023-06-04T00:10:48;101787.03;;;11.60;46.45
55044;BME280;54902;50.420;18.854;2023-06-04T00:11:19;101792.50;;;11.60;46.40
55044;BME280;54902;50.420;18.854;2023-06-04T00:11:50;101787.15;;;11.58;46.38
55044;BME280;54902;50.420;18.854;2023-06-04T00:12:21;101791.76;;;11.58;46.34
55044;BME280;54902;50.420;18.854;2023-06-04T00:12:52;101791.84;;;11.56;46.31
55044;BME280;54902;50.420;18.854;2023-06-04T00:13:23;101789.09;;;11.56;46.42
55044;BME280;54902;50.420;18.854;2023-06-04T00:13:55;101784.73;;;11.54;46.47
55044;BME280;54902;50.420;18.854;2023-06-04T00:14:26;101781.13;;;11.53;46.60
55044;BME280;54902;50.420;18.854;2023-06-04T00:14:57;101792.06;;;11.53;46.72
55044;BME280;54902;50.420;18.854;2023-06-04T00:15:28;101773.34;;;11.47;46.57
55044;BME280;54902;50.420;18.854;2023-06-04T00:15:59;101788.58;;;11.51;46.65
55044;BME280;54902;50.420;18.854;2023-06-04T00:16:30;101792.30;;;11.50;46.71
55044;BME280;54902;50.420;18.854;2023-06-04T00:17:01;101782.33;;;11.49;46.72
55044;BME280;54902;50.420;18.854;2023-06-04T00:17:32;101788.74;;;11.48;46.69
55044;BME280;54902;50.420;18.854;2023-06-04T00:18:05;101783.38;;;11.47;46.67
55044;BME280;54902;50.420;18.854;2023-06-04T00:18:36;101788.11;;;11.45;46.84
55044;BME280;54902;50.420;18.854;2023-06-04T00:19:08;101781.73;;;11.44;46.91
55044;BME280;54902;50.420;18.854;2023-06-04T00:19:39;101788.11;;;11.45;46.86
55044;BME280;54902;50.420;18.854;2023-06-04T00:20:13;101791.94;;;11.42;47.00
55044;BME280;54902;50.420;18.854;2023-06-04T00:20:44;101786.47;;;11.42;46.91
55044;BME280;54902;50.420;18.854;2023-06-04T00:21:15;101793.88;;;11.40;46.84
55044;BME280;54902;50.420;18.854;2023-06-04T00:21:46;101783.91;;;11.39;47.06
55044;BME280;54902;50.420;18.854;2023-06-04T00:22:17;101793.15;;;11.38;47.04
55044;BME280;54902;50.420;18.854;2023-06-04T00:22:48;101794.11;;;11.37;47.08
55044;BME280;54902;50.420;18.854;2023-06-04T00:23:19;101789.62;;;11.36;47.21
55044;BME280;54902;50.420;18.854;2023-06-04T00:23:50;101790.59;;;11.35;47.31
55044;BME280;54902;50.420;18.854;2023-06-04T00:24:21;101791.60;;;11.34;47.40
55044;BME280;54902;50.420;18.854;2023-06-04T00:24:52;101789.86;;;11.33;47.53
55044;BME280;54902;50.420;18.854;2023-06-04T00:25:23;101777.60;;;11.26;47.24
55044;BME280;54902;50.420;18.854;2023-06-04T00:25:54;101790.08;;;11.30;47.26
55044;BME280;54902;50.420;18.854;2023-06-04T00:26:25;101792.89;;;11.29;47.33
55044;BME280;54902;50.420;18.854;2023-06-04T00:26:56;101789.41;;;11.27;47.24
55044;BME280;54902;50.420;18.854;2023-06-04T00:27:27;101790.38;;;11.26;47.18
55044;BME280;54902;50.420;18.854;2023-06-04T00:27:58;101790.50;;;11.24;47.09
55044;BME280;54902;50.420;18.854;2023-06-04T00:28:29;101789.63;;;11.24;46.99
55044;BME280;54902;50.420;18.854;2023-06-04T00:29:00;101789.74;;;11.22;46.96
55044;BME280;54902;50.420;18.854;2023-06-04T00:29:32;101793.45;;;11.21;46.99
55044;BME280;54902;50.420;18.854;2023-06-04T00:30:04;101790.84;;;11.20;46.96
55044;BME280;54902;50.420;18.854;2023-06-04T00:30:35;101789.94;;;11.19;46.92
55044;BME280;54902;50.420;18.854;2023-06-04T00:31:06;101785.48;;;11.18;46.96
55044;BME280;54902;50.420;18.854;2023-06-04T00:31:37;101783.72;;;11.17;46.96
55044;BME280;54902;50.420;18.854;2023-06-04T00:32:08;101787.42;;;11.16;47.01
55044;BME280;54902;50.420;18.854;2023-06-04T00:32:39;101792.03;;;11.16;47.14
55044;BME280;54902;50.420;18.854;2023-06-04T00:33:10;101783.90;;;11.14;47.16
55044;BME280;54902;50.420;18.854;2023-06-04T00:33:41;101784.02;;;11.13;47.10
55044;BME280;54902;50.420;18.854;2023-06-04T00:34:12;101788.63;;;11.12;47.12
55044;BME280;54902;50.420;18.854;2023-06-04T00:34:51;101781.41;;;11.11;47.20
55044;BME280;54902;50.420;18.854;2023-06-04T00:35:23;101787.84;;;11.10;47.18
55044;BME280;54902;50.420;18.854;2023-06-04T00:35:53;101780.64;;;11.09;47.32
55044;BME280;54902;50.420;18.854;2023-06-04T00:36:24;101785.22;;;11.09;47.29
55044;BME280;54902;50.420;18.854;2023-06-04T00:36:55;101789.82;;;11.08;47.39
55044;BME280;54902;50.420;18.854;2023-06-04T00:37:28;101787.20;;;11.07;47.40
55044;BME280;54902;50.420;18.854;2023-06-04T00:38:02;101786.30;;;11.06;47.25
55044;BME280;54902;50.420;18.854;2023-06-04T00:38:33;101781.91;;;11.04;47.33
55044;BME280;54902;50.420;18.854;2023-06-04T00:39:10;101783.79;;;11.03;47.46
55044;BME280;54902;50.420;18.854;2023-06-04T00:39:41;101779.30;;;11.02;47.37
55044;BME280;54902;50.420;18.854;2023-06-04T00:40:20;101780.38;;;11.00;47.32
55044;BME280;54902;50.420;18.854;2023-06-04T00:40:56;101787.73;;;11.00;47.34
55044;BME280;54902;50.420;18.854;2023-06-04T00:41:28;101785.97;;;10.99;47.32
55044;BME280;54902;50.420;18.854;2023-06-04T00:41:59;101786.20;;;10.96;47.31
55044;BME280;54902;50.420;18.854;2023-06-04T00:42:31;101775.25;;;10.96;47.33
55044;BME280;54902;50.420;18.854;2023-06-04T00:44:12;101774.49;;;10.94;47.46
55044;BME280;54902;50.420;18.854;2023-06-04T00:44:28;101786.51;;;10.91;47.53
55044;BME280;54902;50.420;18.854;2023-06-04T00:45:01;101775.66;;;10.90;47.52
55044;BME280;54902;50.420;18.854;2023-06-04T00:45:33;101782.14;;;10.89;47.55
55044;BME280;54902;50.420;18.854;2023-06-04T00:46:08;101785.73;;;10.89;47.58
55044;BME280;54902;50.420;18.854;2023-06-04T00:46:39;101785.84;;;10.88;47.62
55044;BME280;54902;50.420;18.854;2023-06-04T00:47:18;101774.13;;;10.86;47.54
55044;BME280;54902;50.420;18.854;2023-06-04T00:47:50;101772.05;;;10.77;47.91
55044;BME280;54902;50.420;18.854;2023-06-04T00:49:07;101780.03;;;10.80;47.80
55044;BME280;54902;50.420;18.854;2023-06-04T00:49:38;101780.03;;;10.80;47.89
55044;BME280;54902;50.420;18.854;2023-06-04T00:50:10;101781.90;;;10.79;48.04
55044;BME280;54902;50.420;18.854;2023-06-04T00:50:41;101786.58;;;10.77;47.89
55044;BME280;54902;50.420;18.854;2023-06-04T00:51:12;101772.13;;;10.75;48.04
55044;BME280;54902;50.420;18.854;2023-06-04T00:51:43;101768.54;;;10.75;47.91
55044;BME280;54902;50.420;18.854;2023-06-04T00:52:15;101775.98;;;10.73;48.10
55044;BME280;54902;50.420;18.854;2023-06-04T00:52:48;101776.95;;;10.72;48.36
55044;BME280;54902;50.420;18.854;2023-06-04T00:53:21;101780.66;;;10.71;48.49
55044;BME280;54902;50.420;18.854;2023-06-04T00:53:53;101775.30;;;10.69;48.39
55044;BME280;54902;50.420;18.854;2023-06-04T00:54:25;101769.95;;;10.68;48.61
55044;BME280;54902;50.420;18.854;2023-06-04T00:54:56;101771.78;;;10.67;48.43
55044;BME280;54902;50.420;18.854;2023-06-04T00:55:28;101772.87;;;10.65;48.62
55044;BME280;54902;50.420;18.854;2023-06-04T00:56:01;101774.73;;;10.64;48.43
55044;BME280;54902;50.420;18.854;2023-06-04T00:56:36;101773.09;;;10.62;48.61
55044;BME280;54902;50.420;18.854;2023-06-04T00:57:08;101770.46;;;10.60;48.48
55044;BME280;54902;50.420;18.854;2023-06-04T00:57:39;101775.06;;;10.60;48.33
55044;BME280;54902;50.420;18.854;2023-06-04T00:58:10;101775.17;;;10.58;48.51
55044;BME280;54902;50.420;18.854;2023-06-04T00:58:44;101775.24;;;10.57;48.57
55044;BME280;54902;50.420;18.854;2023-06-04T00:59:17;101778.98;;;10.56;48.65
55044;BME280;54902;50.420;18.854;2023-06-04T00:59:48;101769.99;;;10.54;48.77
55044;BME280;54902;50.420;18.854;2023-06-04T01:00:23;101773.70;;;10.53;48.70
55044;BME280;54902;50.420;18.854;2023-06-04T01:00:56;101773.81;;;10.51;48.81
55044;BME280;54902;50.420;18.854;2023-06-04T01:01:42;101772.95;;;10.51;48.96
55044;BME280;54902;50.420;18.854;2023-06-04T01:02:16;101773.06;;;10.49;48.99
55044;BME280;54902;50.420;18.854;2023-06-04T01:02:52;101768.67;;;10.47;49.00
55044;BME280;54902;50.420;18.854;2023-06-04T01:03:28;101772.38;;;10.46;49.11
55044;BME280;54902;50.420;18.854;2023-06-04T01:04:03;101774.36;;;10.44;49.08
55044;BME280;54902;50.420;18.854;2023-06-04T01:05:34;101766.34;;;10.41;49.02
55044;BME280;54902;50.420;18.854;2023-06-04T01:06:49;101771.05;;;10.39;49.02
55044;BME280;54902;50.420;18.854;2023-06-04T01:07:22;101766.67;;;10.37;48.94
55044;BME280;54902;50.420;18.854;2023-06-04T01:07:54;101771.23;;;10.36;49.20
55044;BME280;54902;50.420;18.854;2023-06-04T01:08:27;101773.10;;;10.36;49.15
55044;BME280;54902;50.420;18.854;2023-06-04T01:08:58;101770.48;;;10.34;48.99
55044;BME280;54902;50.420;18.854;2023-06-04T01:09:31;101765.98;;;10.33;48.96
55044;BME280;54902;50.420;18.854;2023-06-04T01:10:02;101766.96;;;10.32;49.02
55044;BME280;54902;50.420;18.854;2023-06-04T01:10:33;101772.53;;;10.31;49.31
55044;BME280;54902;50.420;18.854;2023-06-04T01:11:04;101769.05;;;10.29;49.20
55044;BME280;54902;50.420;18.854;2023-06-04T01:11:37;101762.68;;;10.28;49.30
55044;BME280;54902;50.420;18.854;2023-06-04T01:12:10;101771.88;;;10.27;49.31
55044;BME280;54902;50.420;18.854;2023-06-04T01:12:45;101770.98;;;10.27;49.15
55044;BME280;54902;50.420;18.854;2023-06-04T01:13:16;101772.85;;;10.26;49.11
55044;BME280;54902;50.420;18.854;2023-06-04T01:13:47;101772.95;;;10.25;49.11
55044;BME280;54902;50.420;18.854;2023-06-04T01:14:18;101770.33;;;10.23;49.39
55044;BME280;54902;50.420;18.854;2023-06-04T01:14:49;101768.57;;;10.22;49.37
55044;BME280;54902;50.420;18.854;2023-06-04T01:15:20;101758.62;;;10.21;49.34
55044;BME280;54902;50.420;18.854;2023-06-04T01:15:51;101772.27;;;10.21;49.22
55044;BME280;54902;50.420;18.854;2023-06-04T01:16:22;101765.05;;;10.20;49.46
55044;BME280;54902;50.420;18.854;2023-06-04T01:17:07;101767.02;;;10.18;49.35
55044;BME280;54902;50.420;18.854;2023-06-04T01:17:51;101768.85;;;10.18;49.20
55044;BME280;54902;50.420;18.854;2023-06-04T01:18:27;101768.96;;;10.16;49.40
55044;BME280;54902;50.420;18.854;2023-06-04T01:19:01;101771.69;;;10.16;49.34
55044;BME280;54902;50.420;18.854;2023-06-04T01:21:08;101766.55;;;10.12;49.36
55044;BME280;54902;50.420;18.854;2023-06-04T01:21:43;101771.11;;;10.11;49.35
55044;BME280;54902;50.420;18.854;2023-06-04T01:23:49;101760.41;;;10.08;49.77
55044;BME280;54902;50.420;18.854;2023-06-04T01:24:34;101769.57;;;10.07;49.53
55044;BME280;54902;50.420;18.854;2023-06-04T01:25:25;101768.70;;;10.07;49.91
55044;BME280;54902;50.420;18.854;2023-06-04T01:25:51;101769.67;;;10.06;49.90
55044;BME280;54902;50.420;18.854;2023-06-04T01:26:22;101776.14;;;10.05;49.87
55044;BME280;54902;50.420;18.854;2023-06-04T01:26:54;101763.55;;;10.02;49.76
55044;BME280;54902;50.420;18.854;2023-06-04T01:27:27;101766.29;;;10.02;49.75
55044;BME280;54902;50.420;18.854;2023-06-04T01:27:59;101759.07;;;10.01;49.68
55044;BME280;54902;50.420;18.854;2023-06-04T01:28:34;101769.99;;;10.01;49.60
55044;BME280;54902;50.420;18.854;2023-06-04T01:29:06;101766.47;;;9.99;49.78
55044;BME280;54902;50.420;18.854;2023-06-04T01:29:40;101776.52;;;9.99;49.57
55044;BME280;54902;50.420;18.854;2023-06-04T01:30:12;101769.20;;;9.99;49.73
55044;BME280;54902;50.420;18.854;2023-06-04T01:30:45;101770.20;;;9.98;49.67
55044;BME280;54902;50.420;18.854;2023-06-04T01:31:17;101770.27;;;9.97;49.61
55044;BME280;54902;50.420;18.854;2023-06-04T01:31:53;101773.01;;;9.97;49.48
55044;BME280;54902;50.420;18.854;2023-06-04T01:32:25;101770.38;;;9.95;49.50
55044;BME280;54902;50.420;18.854;2023-06-04T01:32:56;101770.38;;;9.95;49.53
55044;BME280;54902;50.420;18.854;2023-06-04T01:33:27;101764.02;;;9.95;49.38
55044;BME280;54902;50.420;18.854;2023-06-04T01:33:58;101764.99;;;9.94;49.31
55044;BME280;54902;50.420;18.854;2023-06-04T01:34:30;101766.86;;;9.93;49.27
55044;BME280;54902;50.420;18.854;2023-06-04T01:35:01;101768.62;;;9.94;49.21
55044;BME280;54902;50.420;18.854;2023-06-04T01:36:09;101767.82;;;9.92;49.37
55044;BME280;54902;50.420;18.854;2023-06-04T01:36:42;101768.79;;;9.91;49.26
55044;BME280;54902;50.420;18.854;2023-06-04T01:37:13;101771.52;;;9.91;49.23
55044;BME280;54902;50.420;18.854;2023-06-04T01:37:46;101773.38;;;9.91;49.18
55044;BME280;54902;50.420;18.854;2023-06-04T01:38:19;101775.25;;;9.90;49.26
55044;BME280;54902;50.420;18.854;2023-06-04T01:38:51;101767.93;;;9.91;49.32
55044;BME280;54902;50.420;18.854;2023-06-04T01:39:22;101765.30;;;9.89;49.39
55044;BME280;54902;50.420;18.854;2023-06-04T01:39:53;101766.17;;;9.90;49.45
55044;BME280;54902;50.420;18.854;2023-06-04T01:40:24;101761.68;;;9.89;49.46
55044;BME280;54902;50.420;18.854;2023-06-04T01:40:56;101767.14;;;9.89;49.52
55044;BME280;54902;50.420;18.854;2023-06-04T01:41:31;101762.68;;;9.88;49.71
55044;BME280;54902;50.420;18.854;2023-06-04T01:42:02;101762.68;;;9.88;49.71
55044;BME280;54902;50.420;18.854;2023-06-04T01:42:34;101769.00;;;9.88;49.60
55044;BME280;54902;50.420;18.854;2023-06-04T01:43:06;101767.24;;;9.87;49.68
55044;BME280;54902;50.420;18.854;2023-06-04T01:43:37;101767.24;;;9.87;49.88
55044;BME280;54902;50.420;18.854;2023-06-04T01:44:08;101763.75;;;9.85;49.77
55044;BME280;54902;50.420;18.854;2023-06-04T01:44:38;101768.20;;;9.86;49.80
55044;BME280;54902;50.420;18.854;2023-06-04T01:45:10;101770.08;;;9.86;49.68
55044;BME280;54902;50.420;18.854;2023-06-04T01:45:41;101768.32;;;9.85;49.59
55044;BME280;54902;50.420;18.854;2023-06-04T01:46:12;101769.21;;;9.85;49.73
55044;BME280;54902;50.420;18.854;2023-06-04T01:46:43;101767.45;;;9.84;49.72
55044;BME280;54902;50.420;18.854;2023-06-04T01:47:14;101768.42;;;9.83;49.82
55044;BME280;54902;50.420;18.854;2023-06-04T01:47:46;101772.04;;;9.84;49.82
55044;BME280;54902;50.420;18.854;2023-06-04T01:48:17;101773.88;;;9.83;49.77
55044;BME280;54902;50.420;18.854;2023-06-04T01:48:48;101769.38;;;9.83;49.71
55044;BME280;54902;50.420;18.854;2023-06-04T01:49:19;101773.13;;;9.82;49.65
55044;BME280;54902;50.420;18.854;2023-06-04T01:49:50;101762.20;;;9.82;49.60
55044;BME280;54902;50.420;18.854;2023-06-04T01:50:21;101771.36;;;9.81;49.62
55044;BME280;54902;50.420;18.854;2023-06-04T01:50:52;101764.13;;;9.80;49.58
55044;BME280;54902;50.420;18.854;2023-06-04T01:51:23;101770.49;;;9.80;49.60
55044;BME280;54902;50.420;18.854;2023-06-04T01:51:54;101775.06;;;9.80;49.75
55044;BME280;54902;50.420;18.854;2023-06-04T01:52:26;101759.65;;;9.79;49.64
55044;BME280;54902;50.420;18.854;2023-06-04T01:52:58;101766.98;;;9.78;49.76
55044;BME280;54902;50.420;18.854;2023-06-04T01:53:29;101760.65;;;9.78;49.76
55044;BME280;54902;50.420;18.854;2023-06-04T01:54:01;101770.55;;;9.79;49.82
55044;BME280;54902;50.420;18.854;2023-06-04T01:54:32;101769.80;;;9.77;49.93
55044;BME280;54902;50.420;18.854;2023-06-04T01:55:05;101759.75;;;9.77;49.93
55044;BME280;54902;50.420;18.854;2023-06-04T01:55:37;101762.59;;;9.76;49.91
55044;BME280;54902;50.420;18.854;2023-06-04T01:56:09;101774.46;;;9.75;49.86
55044;BME280;54902;50.420;18.854;2023-06-04T01:56:43;101768.15;;;9.74;49.93
55044;BME280;54902;50.420;18.854;2023-06-04T01:57:14;101771.73;;;9.75;49.86
55044;BME280;54902;50.420;18.854;2023-06-04T01:57:46;101749.63;;;9.65;49.82
55044;BME280;54902;50.420;18.854;2023-06-04T01:58:20;101761.90;;;9.72;49.71
55044;BME280;54902;50.420;18.854;2023-06-04T01:58:57;101773.70;;;9.73;49.80
55044;BME280;54902;50.420;18.854;2023-06-04T01:59:28;101769.22;;;9.72;50.09
55044;BME280;54902;50.420;18.854;2023-06-04T01:59:59;101769.22;;;9.72;50.05
55044;BME280;54902;50.420;18.854;2023-06-04T02:00:33;101770.19;;;9.71;50.02
55044;BME280;54902;50.420;18.854;2023-06-04T02:01:05;101769.32;;;9.70;49.95
55044;BME280;54902;50.420;18.854;2023-06-04T02:01:38;101766.70;;;9.69;49.95
55044;BME280;54902;50.420;18.854;2023-06-04T02:02:12;101770.40;;;9.68;49.87
55044;BME280;54902;50.420;18.854;2023-06-04T02:02:45;101765.80;;;9.68;49.81
55044;BME280;54902;50.420;18.854;2023-06-04T02:03:16;101769.52;;;9.67;49.73
55044;BME280;54902;50.420;18.854;2023-06-04T02:03:47;101768.63;;;9.67;49.72
55044;BME280;54902;50.420;18.854;2023-06-04T02:04:23;101768.63;;;9.67;49.66
55044;BME280;54902;50.420;18.854;2023-06-04T02:04:56;101766.01;;;9.65;49.63
55044;BME280;54902;50.420;18.854;2023-06-04T02:05:27;101766.11;;;9.64;49.63
55044;BME280;54902;50.420;18.854;2023-06-04T02:06:01;101767.88;;;9.65;49.59
55044;BME280;54902;50.420;18.854;2023-06-04T02:06:34;101767.07;;;9.63;49.71
55044;BME280;54902;50.420;18.854;2023-06-04T02:07:11;101763.38;;;9.64;49.71
55044;BME280;54902;50.420;18.854;2023-06-04T02:07:48;101759.86;;;9.62;49.62
55044;BME280;54902;50.420;18.854;2023-06-04T02:08:19;101762.59;;;9.62;49.55
55044;BME280;54902;50.420;18.854;2023-06-04T02:16:34;101765.84;;;9.54;50.13
55044;BME280;54902;50.420;18.854;2023-06-04T02:17:05;101761.34;;;9.53;50.24
55044;BME280;54902;50.420;18.854;2023-06-04T02:17:46;101768.66;;;9.53;50.12
55044;BME280;54902;50.420;18.854;2023-06-04T02:18:19;101762.32;;;9.52;50.00
55044;BME280;54902;50.420;18.854;2023-06-04T02:18:55;101766.89;;;9.52;49.97
55044;BME280;54902;50.420;18.854;2023-06-04T02:19:26;101760.55;;;9.51;50.09
55044;BME280;54902;50.420;18.854;2023-06-04T02:19:58;101757.05;;;9.49;50.08
55044;BME280;54902;50.420;18.854;2023-06-04T02:20:31;101753.36;;;9.50;50.19
55044;BME280;54902;50.420;18.854;2023-06-04T02:21:02;101761.55;;;9.50;50.20
55044;BME280;54902;50.420;18.854;2023-06-04T02:21:32;101758.02;;;9.48;50.19
55044;BME280;54902;50.420;18.854;2023-06-04T02:22:04;101758.02;;;9.48;50.05
55044;BME280;54902;50.420;18.854;2023-06-04T02:22:40;101762.63;;;9.48;50.34
55044;BME280;54902;50.420;18.854;2023-06-04T02:23:12;101768.94;;;9.48;50.51
55044;BME280;54902;50.420;18.854;2023-06-04T02:23:43;101766.31;;;9.47;50.79
55044;BME280;54902;50.420;18.854;2023-06-04T02:24:14;101761.72;;;9.47;50.82
55044;BME280;54902;50.420;18.854;2023-06-04T02:24:52;101757.27;;;9.46;51.07
55044;BME280;54902;50.420;18.854;2023-06-04T02:25:26;101759.99;;;9.46;50.94
55044;BME280;54902;50.420;18.854;2023-06-04T02:25:57;101760.95;;;9.45;50.97
55044;BME280;54902;50.420;18.854;2023-06-04T02:26:31;101765.55;;;9.45;50.78
55044;BME280;54902;50.420;18.854;2023-06-04T02:27:03;101755.81;;;9.41;50.65
55044;BME280;54902;50.420;18.854;2023-06-04T02:27:38;101770.10;;;9.44;50.64
55044;BME280;54902;50.420;18.854;2023-06-04T02:28:10;101759.30;;;9.43;50.64
55044;BME280;54902;50.420;18.854;2023-06-04T02:28:49;101771.08;;;9.43;51.22
55044;BME280;54902;50.420;18.854;2023-06-04T02:29:29;101759.30;;;9.43;51.15
55044;BME280;54902;50.420;18.854;2023-06-04T02:30:23;101763.88;;;9.42;51.43
55044;BME280;54902;50.420;18.854;2023-06-04T02:30:50;101761.27;;;9.41;51.47
55044;BME280;54902;50.420;18.854;2023-06-04T02:31:44;101768.45;;;9.42;51.38
55044;BME280;54902;50.420;18.854;2023-06-04T02:33:26;101769.51;;;9.39;51.77
55044;BME280;54902;50.420;18.854;2023-06-04T02:34:09;101769.51;;;9.39;51.72
55044;BME280;54902;50.420;18.854;2023-06-04T02:34:57;101771.38;;;9.39;51.82
55044;BME280;54902;50.420;18.854;2023-06-04T02:35:48;101774.11;;;9.39;51.75
55044;BME280;54902;50.420;18.854;2023-06-04T02:37:15;101763.30;;;9.37;51.72
55044;BME280;54902;50.420;18.854;2023-06-04T02:37:57;101766.99;;;9.36;52.49
55044;BME280;54902;50.420;18.854;2023-06-04T02:38:41;101772.34;;;9.38;52.42
55044;BME280;54902;50.420;18.854;2023-06-04T02:50:41;101761.73;;;9.33;52.06
55044;BME280;54902;50.420;18.854;2023-06-04T02:51:37;101752.66;;;9.33;52.36
55044;BME280;54902;50.420;18.854;2023-06-04T02:52:30;101753.55;;;9.33;52.22
55044;BME280;54902;50.420;18.854;2023-06-04T02:54:11;101754.42;;;9.34;52.10
55044;BME280;54902;50.420;18.854;2023-06-04T02:55:06;101752.66;;;9.33;52.08
55044;BME280;54902;50.420;18.854;2023-06-04T03:01:24;101750.63;;;9.36;52.45
55044;BME280;54902;50.420;18.854;2023-06-04T03:05:25;101748.76;;;9.37;52.93
55044;BME280;54902;50.420;18.854;2023-06-04T03:10:06;101757.54;;;9.42;53.19
55044;BME280;54902;50.420;18.854;2023-06-04T03:10:43;101759.30;;;9.43;52.89
55044;BME280;54902;50.420;18.854;2023-06-04T03:11:15;101755.60;;;9.44;52.68
55044;BME280;54902;50.420;18.854;2023-06-04T03:11:49;101751.91;;;9.45;52.70
55044;BME280;54902;50.420;18.854;2023-06-04T03:12:22;101749.84;;;9.48;52.65
55044;BME280;54902;50.420;18.854;2023-06-04T03:12:55;101751.60;;;9.49;52.91
55044;BME280;54902;50.420;18.854;2023-06-04T03:13:29;101758.72;;;9.52;52.84
55044;BME280;54902;50.420;18.854;2023-06-04T03:14:03;101753.05;;;9.55;53.10
55044;BME280;54902;50.420;18.854;2023-06-04T03:14:36;101754.81;;;9.56;53.14
55044;BME280;54902;50.420;18.854;2023-06-04T03:15:11;101763.59;;;9.61;53.42
55044;BME280;54902;50.420;18.854;2023-06-04T03:15:45;101759.79;;;9.63;53.24
55044;BME280;54902;50.420;18.854;2023-06-04T03:16:22;101764.94;;;9.68;53.43
55044;BME280;54902;50.420;18.854;2023-06-04T03:16:56;101756.54;;;9.71;53.47
55044;BME280;54902;50.420;18.854;2023-06-04T03:17:31;101759.96;;;9.74;53.26
55044;BME280;54902;50.420;18.854;2023-06-04T03:18:07;101761.52;;;9.78;53.21
55044;BME280;54902;50.420;18.854;2023-06-04T03:18:44;101762.20;;;9.82;53.22
55044;BME280;54902;50.420;18.854;2023-06-04T03:19:15;101760.02;;;9.86;53.13
55044;BME280;54902;50.420;18.854;2023-06-04T03:19:52;101762.48;;;9.91;53.02
55044;BME280;54902;50.420;18.854;2023-06-04T03:20:27;101762.18;;;9.95;52.95
55044;BME280;54902;50.420;18.854;2023-06-04T03:20:58;101755.55;;;9.99;53.08
55044;BME280;54902;50.420;18.854;2023-06-04T03:21:29;101764.31;;;10.04;53.08
55044;BME280;54902;50.420;18.854;2023-06-04T03:22:01;101758.47;;;10.10;53.15
55044;BME280;54902;50.420;18.854;2023-06-04T03:22:36;101760.02;;;10.14;53.05
55044;BME280;54902;50.420;18.854;2023-06-04T03:23:07;101759.70;;;10.19;53.11
55044;BME280;54902;50.420;18.854;2023-06-04T03:23:38;101756.57;;;10.25;53.21
55044;BME280;54902;50.420;18.854;2023-06-04T03:24:09;101754.41;;;10.30;53.24
55044;BME280;54902;50.420;18.854;2023-06-04T03:24:41;101756.81;;;10.34;53.36
55044;BME280;54902;50.420;18.854;2023-06-04T03:25:12;101760.12;;;10.39;53.24
55044;BME280;54902;50.420;18.854;2023-06-04T03:25:43;101763.43;;;10.44;53.39
55044;BME280;54902;50.420;18.854;2023-06-04T03:26:14;101754.80;;;10.50;53.27
55044;BME280;54902;50.420;18.854;2023-06-04T03:26:45;101754.57;;;10.53;53.16
55044;BME280;54902;50.420;18.854;2023-06-04T03:27:16;101755.15;;;10.58;53.13
55044;BME280;54902;50.420;18.854;2023-06-04T03:27:47;101755.71;;;10.63;53.31
55044;BME280;54902;50.420;18.854;2023-06-04T03:28:18;101748.09;;;10.68;53.26
55044;BME280;54902;50.420;18.854;2023-06-04T03:28:49;101760.45;;;10.73;53.13
55044;BME280;54902;50.420;18.854;2023-06-04T03:29:20;101746.55;;;10.76;53.18
55044;BME280;54902;50.420;18.854;2023-06-04T03:29:57;101748.76;;;10.84;53.09
55044;BME280;54902;50.420;18.854;2023-06-04T03:30:28;101752.07;;;10.89;53.04
55044;BME280;54902;50.420;18.854;2023-06-04T03:31:06;101751.73;;;10.93;52.96
55044;BME280;54902;50.420;18.854;2023-06-04T03:31:45;101758.62;;;10.99;52.86
55044;BME280;54902;50.420;18.854;2023-06-04T03:32:16;101750.97;;;11.03;52.93
55044;BME280;54902;50.420;18.854;2023-06-04T03:32:47;101745.20;;;11.08;52.91
55044;BME280;54902;50.420;18.854;2023-06-04T03:33:19;101750.34;;;11.12;52.85
55044;BME280;54902;50.420;18.854;2023-06-04T03:33:50;101750.89;;;11.17;52.70
55044;BME280;54902;50.420;18.854;2023-06-04T03:34:21;101757.89;;;11.21;52.78
55044;BME280;54902;50.420;18.854;2023-06-04T03:34:59;101761.18;;;11.26;52.84